Millennium Dawn — WDA7527 — position and weather

sailwx.info

Track history (hours):
 
Tides and Currents Weather Stations Pressure Air Temp Water Temp Dewpoint Dewpoint Depression Visibility Wind Speed Wind Dir Waves Ship Positions

Millennium Dawn

Owner: Harley Marine Services, Inc, Seattle, WA. More information available from US FCC via Universal Licensing System and Coast Guard Vessel Documentation Center.

Last reported at 2018-Feb-19 20:55 UTC. Time now 2018-Feb-19 22:09 UTC.
Position N 48°19' W 123°02'.

Length 30 m; draft 5.2 m.

Type: Tug. MMSI: 366844270.

Date/timePositionNaut miles runAvg speedWind from/ knotsBaromVisibWave heightAir tempDewpointWater temp
2018-Feb-19 20:55N 48°19' W 123°02'512.0
2018-Feb-19 20:30N 48°21' W 122°56'612.0
2018-Feb-19 20:00N 48°24' W 122°48'511.0
2018-Feb-19 19:30N 48°29' W 122°44'611.4
2018-Feb-19 19:00N 48°34' W 122°40'4 7.9
2018-Feb-19 18:30N 48°37' W 122°36'2 3.2
2018-Feb-19 18:00N 48°36' W 122°34'0 0.2
2018-Feb-19 17:30N 48°36' W 122°34'0 0.5
2018-Feb-19 17:00N 48°36' W 122°34'1 1.1
2018-Feb-19 16:30N 48°36' W 122°34'0 0.3
2018-Feb-19 16:01N 48°36' W 122°34'0 0.8
2018-Feb-19 15:30N 48°36' W 122°34'0 1.0
2018-Feb-19 15:00N 48°36' W 122°34'0 0.6
2018-Feb-19 14:30N 48°36' W 122°34'0 0.8
2018-Feb-19 14:00N 48°36' W 122°34'3 5.1
2018-Feb-19 13:30N 48°37' W 122°38'3 7.1
2018-Feb-19 13:00N 48°40' W 122°41'3 6.9
2018-Feb-19 12:30N 48°43' W 122°43'5 8.9
2018-Feb-19 11:56N 48°48' W 122°44'1 0.5
2018-Feb-19 10:33N 48°48' W 122°44'110.9
2018-Feb-19 10:29N 48°48' W 122°44'511.1
2018-Feb-19 10:00N 48°42' W 122°43'511.0
2018-Feb-19 09:30N 48°38' W 122°38'3 6.6
2018-Feb-19 09:00N 48°36' W 122°34'0 0.1
2018-Feb-19 08:30N 48°36' W 122°34'0 0.1
2018-Feb-19 08:00N 48°36' W 122°34'0 1.0
2018-Feb-19 07:30N 48°35' W 122°34'3 6.9
2018-Feb-19 07:00N 48°32' W 122°34'2 3.2
2018-Feb-19 06:30N 48°31' W 122°34'0 0.1
2018-Feb-19 06:00N 48°31' W 122°34'0 0.2
2018-Feb-19 05:30N 48°31' W 122°34'5 9.6
2018-Feb-19 05:00N 48°35' W 122°36'4 7.4
2018-Feb-19 04:30N 48°38' W 122°39'510.5
2018-Feb-19 04:00N 48°43' W 122°43'510.9
2018-Feb-19 03:30N 48°48' W 122°44'1 0.7
2018-Feb-19 02:26N 48°48' W 122°45'2 4.4
2018-Feb-19 01:59N 48°46' W 122°45'4 8.1
2018-Feb-19 01:30N 48°42' W 122°43'4 7.2
2018-Feb-19 01:00N 48°38' W 122°44'4 7.7
2018-Feb-19 00:30N 48°35' W 122°45'4 7.6
2018-Feb-19 00:00N 48°31' W 122°42'2 4.8
2018-Feb-18 23:30N 48°31' W 122°38'1 1.4
2018-Feb-18 23:00N 48°31' W 122°37'0 0.1
2018-Feb-18 22:30N 48°31' W 122°37'0 0.1
2018-Feb-18 22:00N 48°31' W 122°37'0 0.0
2018-Feb-18 21:30N 48°31' W 122°37'0 0.0
2018-Feb-18 21:00N 48°31' W 122°37'0 0.0
2018-Feb-18 20:30N 48°31' W 122°37'0 0.0
2018-Feb-18 20:00N 48°31' W 122°37'0 0.0
2018-Feb-18 19:30N 48°31' W 122°37'0 0.0
2018-Feb-18 18:59N 48°31' W 122°37'0 0.0
2018-Feb-18 18:30N 48°31' W 122°37'0 0.0
2018-Feb-18 18:00N 48°31' W 122°37'0 0.0
2018-Feb-18 17:30N 48°31' W 122°37'0 0.0
2018-Feb-18 17:00N 48°31' W 122°37'0 0.0
2018-Feb-18 16:30N 48°31' W 122°37'0 0.0
2018-Feb-18 16:00N 48°31' W 122°37'1 2.9
2018-Feb-18 15:30N 48°31' W 122°35'0 0.7
2018-Feb-18 15:00N 48°31' W 122°35'1 2.2
2018-Feb-18 14:30N 48°31' W 122°37'0 0.0
2018-Feb-18 14:00N 48°31' W 122°37'0 0.0
2018-Feb-18 13:30N 48°31' W 122°37'0 0.0
2018-Feb-18 13:00N 48°31' W 122°37'0 0.0
2018-Feb-18 12:30N 48°31' W 122°37'0 0.0
2018-Feb-18 12:00N 48°31' W 122°37'0 0.0
2018-Feb-18 11:30N 48°31' W 122°37'0 0.0
2018-Feb-18 11:00N 48°31' W 122°37'0 0.0
2018-Feb-18 10:30N 48°31' W 122°37'0 0.0
2018-Feb-18 10:00N 48°31' W 122°37'0 0.0
2018-Feb-18 09:30N 48°31' W 122°37'0 0.0
2018-Feb-18 08:59N 48°31' W 122°37'0 0.0
2018-Feb-18 08:30N 48°31' W 122°37'0 0.0
2018-Feb-18 08:00N 48°31' W 122°37'0 0.0
2018-Feb-18 07:29N 48°31' W 122°37'0 0.0
2018-Feb-18 07:00N 48°31' W 122°37'0 0.0
2018-Feb-18 06:30N 48°31' W 122°37'0 0.0
2018-Feb-18 05:59N 48°31' W 122°37'0 0.0
2018-Feb-18 05:30N 48°31' W 122°37'0 0.0
2018-Feb-18 05:00N 48°31' W 122°37'0 0.0
2018-Feb-18 04:30N 48°31' W 122°37'0 0.0
2018-Feb-18 04:00N 48°31' W 122°37'0 0.1
2018-Feb-18 03:30N 48°31' W 122°37'0 0.1
2018-Feb-18 03:00N 48°31' W 122°37'0 0.0
2018-Feb-18 02:30N 48°31' W 122°37'0 0.0
2018-Feb-18 01:59N 48°31' W 122°37'0 0.1
2018-Feb-18 01:30N 48°31' W 122°37'3 5.0
2018-Feb-18 01:00N 48°31' W 122°41'2 4.0
2018-Feb-18 00:30N 48°32' W 122°44'3 6.0
2018-Feb-18 00:00N 48°34' W 122°45'3 6.4
2018-Feb-17 23:30N 48°37' W 122°45'3 6.1
2018-Feb-17 23:00N 48°40' W 122°44'4 7.2
2018-Feb-17 22:30N 48°44' W 122°46'4 6.1
2018-Feb-17 21:55N 48°47' W 122°45'2 3.1
2018-Feb-17 21:09N 48°49' W 122°43'1 0.2
2018-Feb-17 16:54N 48°49' W 122°43'511.1
2018-Feb-17 16:28N 48°44' W 122°44'511.5
2018-Feb-17 16:00N 48°39' W 122°40'611.7
2018-Feb-17 15:30N 48°34' W 122°35'4 8.1
2018-Feb-17 15:00N 48°30' W 122°34'1 1.0
2018-Feb-17 14:30N 48°31' W 122°35'1 1.3
2018-Feb-17 14:00N 48°31' W 122°34'3 5.8
2018-Feb-17 13:30N 48°34' W 122°35'510.3
2018-Feb-17 13:00N 48°39' W 122°39'5 9.8
2018-Feb-17 12:30N 48°43' W 122°43'6 0.8
2018-Feb-17 04:44N 48°49' W 122°43'1 1.5
2018-Feb-17 04:21N 48°48' W 122°44'3 7.1
2018-Feb-17 03:55N 48°45' W 122°45'3 7.0
2018-Feb-17 03:30N 48°43' W 122°44'4 7.0
2018-Feb-17 03:00N 48°39' W 122°43'4 7.6
2018-Feb-17 02:30N 48°36' W 122°45'4 9.0
2018-Feb-17 02:00N 48°31' W 122°44'510.2
2018-Feb-17 01:29N 48°26' W 122°44'28 9.3
2018-Feb-16 22:28N 47°58' W 122°34'510.0
2018-Feb-16 22:00N 47°55' W 122°29'510.1
2018-Feb-16 21:30N 47°51' W 122°27'510.6
2018-Feb-16 21:00N 47°45' W 122°26'510.1
2018-Feb-16 20:30N 47°40' W 122°27'5 9.9
2018-Feb-16 20:00N 47°36' W 122°22'2 4.3
2018-Feb-16 19:28N 47°34' W 122°21'0 0.0
2018-Feb-16 19:00N 47°34' W 122°21'0 0.0
2018-Feb-16 18:28N 47°34' W 122°21'0 0.0
2018-Feb-16 18:00N 47°34' W 122°21'0 0.1
2018-Feb-16 17:31N 47°34' W 122°21'0 0.2
2018-Feb-16 17:00N 47°34' W 122°21'0 0.1
2018-Feb-16 16:19N 47°34' W 122°21'0 0.0
2018-Feb-16 16:00N 47°34' W 122°21'0 0.0
2018-Feb-16 15:30N 47°34' W 122°21'0 0.0
2018-Feb-16 15:00N 47°34' W 122°21'0 0.0
2018-Feb-16 14:30N 47°34' W 122°21'0 0.0
2018-Feb-16 14:00N 47°34' W 122°21'0 0.0
2018-Feb-16 13:31N 47°34' W 122°21'4 8.5
2018-Feb-16 13:00N 47°38' W 122°25'5 9.8
2018-Feb-16 12:30N 47°42' W 122°28'510.9
2018-Feb-16 12:00N 47°48' W 122°27'611.8
2018-Feb-16 11:30N 47°53' W 122°30'33 1.8
2018-Feb-15 17:34N 48°19' W 123°01'312.2
2018-Feb-15 17:19N 48°20' W 122°56'411.9
2018-Feb-15 17:00N 48°22' W 122°51'4 8.7
2018-Feb-15 16:30N 48°24' W 122°45'3 6.5
2018-Feb-15 16:00N 48°27' W 122°45'3 6.0
2018-Feb-15 15:30N 48°30' W 122°43'3 6.2
2018-Feb-15 15:00N 48°31' W 122°39'3 7.0
2018-Feb-15 14:31N 48°31' W 122°34'0 0.0
2018-Feb-15 14:01N 48°31' W 122°34'1 1.7
2018-Feb-15 13:30N 48°31' W 122°35'3 6.0
2018-Feb-15 13:00N 48°31' W 122°40'0 0.5
2018-Feb-15 12:30N 48°31' W 122°40'0 0.8
2018-Feb-15 12:01N 48°31' W 122°40'4 7.4
2018-Feb-15 11:31N 48°28' W 122°44'611.9
2018-Feb-15 11:00N 48°22' W 122°45'711.2
2018-Feb-15 10:24N 48°16' W 122°47'17 8.0
2018-Feb-15 08:14N 48°00' W 122°36'2 9.1
2018-Feb-15 07:58N 47°58' W 122°34'4 9.6
2018-Feb-15 07:30N 47°55' W 122°29'510.8
2018-Feb-15 07:00N 47°50' W 122°27'611.4
2018-Feb-15 06:30N 47°44' W 122°26'611.3
2018-Feb-15 06:01N 47°39' W 122°27'510.7
2018-Feb-15 05:30N 47°35' W 122°21'1 1.4
2018-Feb-15 05:00N 47°34' W 122°21'0 0.0
2018-Feb-15 04:30N 47°34' W 122°21'0 0.0
2018-Feb-15 04:01N 47°34' W 122°21'0 0.0
2018-Feb-15 03:30N 47°34' W 122°21'0 0.0
2018-Feb-15 03:00N 47°34' W 122°21'0 0.0
2018-Feb-15 02:30N 47°34' W 122°21'0 0.0
2018-Feb-15 02:00N 47°34' W 122°21'1 1.7
2018-Feb-15 01:31N 47°35' W 122°21'4 7.8
2018-Feb-15 01:01N 47°34' W 122°26'611.7
2018-Feb-15 00:30N 47°28' W 122°24'611.0
2018-Feb-15 00:00N 47°23' W 122°21'511.0
2018-Feb-14 23:30N 47°19' W 122°27'4 7.7
2018-Feb-14 22:59N 47°16' W 122°23'0 0.8
2018-Feb-14 22:28N 47°16' W 122°24'2 4.8
2018-Feb-14 22:00N 47°17' W 122°26'0 0.6
2018-Feb-14 21:30N 47°17' W 122°26'0 0.1
2018-Feb-14 13:53N 47°18' W 122°25'2 5.0
2018-Feb-14 13:31N 47°16' W 122°26'1 1.0
2018-Feb-14 13:01N 47°15' W 122°26'0 0.1
2018-Feb-14 12:31N 47°15' W 122°26'0 0.0
2018-Feb-14 12:00N 47°15' W 122°26'0 0.1
2018-Feb-14 11:30N 47°15' W 122°26'0 0.0
2018-Feb-14 11:01N 47°15' W 122°26'0 0.0
2018-Feb-14 10:30N 47°15' W 122°26'0 0.0
2018-Feb-14 10:00N 47°15' W 122°26'0 0.0
2018-Feb-14 09:30N 47°15' W 122°26'0 0.0
2018-Feb-14 09:00N 47°15' W 122°26'0 0.0
2018-Feb-14 08:29N 47°15' W 122°26'0 0.0
2018-Feb-14 07:59N 47°15' W 122°26'0 0.0
2018-Feb-14 07:31N 47°15' W 122°26'0 0.1
2018-Feb-14 07:01N 47°15' W 122°26'0 0.1
2018-Feb-14 06:30N 47°15' W 122°26'1 2.4
2018-Feb-14 06:00N 47°17' W 122°27'1 1.4
2018-Feb-14 05:30N 47°17' W 122°26'1 0.2
2018-Feb-14 01:41N 47°17' W 122°24'1 5.6
2018-Feb-14 01:28N 47°18' W 122°25'0 0.0
2018-Feb-13 21:48N 47°18' W 122°25'0 0.0
2018-Feb-13 21:29N 47°18' W 122°25'0 0.0
2018-Feb-13 19:17N 47°18' W 122°25'0 0.0
2018-Feb-13 18:55N 47°18' W 122°25'0 0.0
2018-Feb-13 18:19N 47°18' W 122°25'0 0.0
2018-Feb-13 17:33N 47°18' W 122°25'0 0.0
2018-Feb-13 17:07N 47°18' W 122°25'0 0.0
2018-Feb-13 17:00N 47°18' W 122°25'0 0.0
2018-Feb-13 16:26N 47°18' W 122°25'0 0.0
2018-Feb-13 14:46N 47°18' W 122°25'2 6.2
2018-Feb-13 14:30N 47°16' W 122°24'1 1.2
2018-Feb-13 14:01N 47°16' W 122°23'1 2.8
2018-Feb-13 13:31N 47°17' W 122°25'0 0.3
2018-Feb-13 13:00N 47°17' W 122°25'2 3.7
2018-Feb-13 12:31N 47°16' W 122°23'0 0.0
2018-Feb-13 12:01N 47°16' W 122°23'0 0.0
2018-Feb-13 11:30N 47°16' W 122°23'0 0.0
2018-Feb-13 11:01N 47°16' W 122°23'0 0.0
2018-Feb-13 10:31N 47°16' W 122°23'0 0.0
2018-Feb-13 10:00N 47°16' W 122°23'0 0.0
2018-Feb-13 09:30N 47°16' W 122°23'0 0.0
2018-Feb-13 09:00N 47°16' W 122°23'0 0.0
2018-Feb-13 08:31N 47°16' W 122°23'0 0.0
2018-Feb-13 07:59N 47°16' W 122°23'0 0.0
2018-Feb-13 07:30N 47°16' W 122°23'0 0.0
2018-Feb-13 07:00N 47°16' W 122°23'0 0.0
2018-Feb-13 06:30N 47°16' W 122°23'0 0.0
2018-Feb-13 06:01N 47°16' W 122°23'0 0.0
2018-Feb-13 05:31N 47°16' W 122°23'0 0.0
2018-Feb-13 05:00N 47°16' W 122°23'2 2.8
2018-Feb-13 04:28N 47°17' W 122°25'1 2.0
2018-Feb-13 03:54N 47°18' W 122°25'0 0.0
2018-Feb-13 03:23N 47°18' W 122°25'0 0.5
2018-Feb-13 02:32N 47°17' W 122°25'0 4.4
2018-Feb-13 02:28N 47°17' W 122°25'0 0.2
2018-Feb-13 00:28N 47°18' W 122°25'1 0.1
2018-Feb-12 19:11N 47°17' W 122°26'210.0
2018-Feb-12 19:00N 47°19' W 122°28'511.0
2018-Feb-12 18:30N 47°23' W 122°22'611.3
2018-Feb-12 18:00N 47°28' W 122°25'611.8
2018-Feb-12 17:31N 47°34' W 122°27'4 8.5
2018-Feb-12 17:00N 47°35' W 122°21'1 1.6
2018-Feb-12 16:30N 47°34' W 122°21'0 0.0
2018-Feb-12 15:59N 47°34' W 122°21'0 0.0
2018-Feb-12 15:30N 47°34' W 122°21'0 0.0
2018-Feb-12 15:00N 47°34' W 122°21'0 0.0
2018-Feb-12 14:31N 47°34' W 122°21'0 0.0
2018-Feb-12 14:00N 47°34' W 122°21'0 0.0
2018-Feb-12 13:30N 47°34' W 122°21'0 0.0
2018-Feb-12 12:59N 47°34' W 122°21'0 0.0
2018-Feb-12 12:30N 47°34' W 122°21'0 0.0
2018-Feb-12 12:01N 47°34' W 122°21'0 0.0
2018-Feb-12 11:30N 47°34' W 122°21'0 0.0
2018-Feb-12 11:00N 47°34' W 122°21'0 0.0
2018-Feb-12 10:31N 47°34' W 122°21'0 0.0
2018-Feb-12 10:00N 47°34' W 122°21'0 0.0
2018-Feb-12 09:30N 47°34' W 122°21'0 0.0
2018-Feb-12 09:00N 47°34' W 122°21'0 0.0
2018-Feb-12 08:30N 47°34' W 122°21'0 0.0
2018-Feb-12 08:00N 47°34' W 122°21'0 0.0
2018-Feb-12 07:30N 47°34' W 122°21'0 0.0
2018-Feb-12 07:00N 47°34' W 122°21'0 0.0
2018-Feb-12 06:30N 47°34' W 122°21'0 0.0
2018-Feb-12 06:00N 47°34' W 122°21'0 0.0
2018-Feb-12 05:29N 47°34' W 122°21'0 0.0
2018-Feb-12 05:01N 47°34' W 122°21'0 0.0
2018-Feb-12 04:30N 47°34' W 122°21'0 0.0
2018-Feb-12 04:01N 47°34' W 122°21'0 0.0
2018-Feb-12 03:29N 47°34' W 122°21'1 2.8
2018-Feb-12 03:00N 47°36' W 122°21'1 1.4
2018-Feb-12 02:19N 47°35' W 122°21'0 0.0
2018-Feb-12 01:52N 47°35' W 122°21'0 0.2
2018-Feb-12 01:28N 47°35' W 122°21'0 0.5
2018-Feb-12 01:00N 47°35' W 122°21'4 7.5
2018-Feb-12 00:30N 47°34' W 122°26'510.2
2018-Feb-12 00:01N 47°29' W 122°24'610.5
2018-Feb-11 23:27N 47°24' W 122°21'4 9.2
2018-Feb-11 23:00N 47°20' W 122°25'3 0.1
2018-Feb-10 18:34N 47°17' W 122°25'1 3.6
2018-Feb-10 18:22N 47°17' W 122°25'1 2.9
2018-Feb-10 18:00N 47°16' W 122°23'4 0.6
2018-Feb-10 12:06N 47°18' W 122°27'110.6
2018-Feb-10 11:58N 47°19' W 122°28'511.7
2018-Feb-10 11:30N 47°23' W 122°22'612.1
2018-Feb-10 11:00N 47°29' W 122°26'611.5
2018-Feb-10 10:30N 47°34' W 122°26'4 8.1
2018-Feb-10 10:00N 47°35' W 122°21'1 0.9
2018-Feb-10 09:21N 47°35' W 122°21'0 0.1
2018-Feb-10 09:00N 47°35' W 122°21'1 2.6
2018-Feb-10 08:30N 47°36' W 122°21'1 1.1
2018-Feb-10 08:00N 47°36' W 122°21'1 2.0
2018-Feb-10 07:29N 47°34' W 122°21'0 0.0
2018-Feb-10 06:59N 47°34' W 122°21'0 0.0
2018-Feb-10 06:30N 47°34' W 122°21'0 0.0
2018-Feb-10 06:00N 47°34' W 122°21'0 0.0
2018-Feb-10 05:26N 47°34' W 122°21'0 0.0
2018-Feb-10 05:00N 47°34' W 122°21'0 0.0
2018-Feb-10 04:30N 47°34' W 122°21'0 0.0
2018-Feb-10 03:58N 47°34' W 122°21'0 0.0
2018-Feb-10 03:30N 47°34' W 122°21'0 0.0
2018-Feb-10 03:00N 47°34' W 122°21'0 0.0
2018-Feb-10 02:31N 47°34' W 122°21'0 0.0
2018-Feb-10 02:00N 47°34' W 122°21'0 0.0
2018-Feb-10 01:30N 47°34' W 122°21'0 0.0
2018-Feb-10 01:00N 47°34' W 122°21'0 0.1
2018-Feb-10 00:30N 47°34' W 122°21'0 0.0
2018-Feb-10 00:00N 47°34' W 122°21'0 0.0
2018-Feb-09 23:30N 47°34' W 122°21'0 0.0
2018-Feb-09 23:00N 47°34' W 122°21'0 0.0
2018-Feb-09 22:46N 47°34' W 122°21'0 0.0
2018-Feb-09 22:30N 47°34' W 122°21'0 0.0
2018-Feb-09 22:01N 47°34' W 122°21'0 0.1
2018-Feb-09 21:31N 47°34' W 122°21'0 0.0
2018-Feb-09 21:01N 47°34' W 122°21'  
Track history (hours):
 
Tides and Currents Weather Stations Pressure Air Temp Water Temp Dewpoint Dewpoint Depression Visibility Wind Speed Wind Dir Waves Ship Positions

Millennium Dawn

Owner: Harley Marine Services, Inc, Seattle, WA. More information available from US FCC via Universal Licensing System and Coast Guard Vessel Documentation Center.

Last reported at 2018-Feb-19 20:55 UTC. Time now 2018-Feb-19 22:09 UTC.
Position N 48°19' W 123°02'.

Length 30 m; draft 5.2 m.

Type: Tug. MMSI: 366844270.

Date/timePositionNaut miles runAvg speedWind from/ knotsBaromVisibWave heightAir tempDewpointWater temp
2018-Feb-19 20:55N 48°19' W 123°02'512.0
2018-Feb-19 20:30N 48°21' W 122°56'612.0
2018-Feb-19 20:00N 48°24' W 122°48'511.0
2018-Feb-19 19:30N 48°29' W 122°44'611.4
2018-Feb-19 19:00N 48°34' W 122°40'4 7.9
2018-Feb-19 18:30N 48°37' W 122°36'2 3.2
2018-Feb-19 18:00N 48°36' W 122°34'0 0.2
2018-Feb-19 17:30N 48°36' W 122°34'0 0.5
2018-Feb-19 17:00N 48°36' W 122°34'1 1.1
2018-Feb-19 16:30N 48°36' W 122°34'0 0.3
2018-Feb-19 16:01N 48°36' W 122°34'0 0.8
2018-Feb-19 15:30N 48°36' W 122°34'0 1.0
2018-Feb-19 15:00N 48°36' W 122°34'0 0.6
2018-Feb-19 14:30N 48°36' W 122°34'0 0.8
2018-Feb-19 14:00N 48°36' W 122°34'3 5.1
2018-Feb-19 13:30N 48°37' W 122°38'3 7.1
2018-Feb-19 13:00N 48°40' W 122°41'3 6.9
2018-Feb-19 12:30N 48°43' W 122°43'5 8.9
2018-Feb-19 11:56N 48°48' W 122°44'1 0.5
2018-Feb-19 10:33N 48°48' W 122°44'110.9
2018-Feb-19 10:29N 48°48' W 122°44'511.1
2018-Feb-19 10:00N 48°42' W 122°43'511.0
2018-Feb-19 09:30N 48°38' W 122°38'3 6.6
2018-Feb-19 09:00N 48°36' W 122°34'0 0.1
2018-Feb-19 08:30N 48°36' W 122°34'0 0.1
2018-Feb-19 08:00N 48°36' W 122°34'0 1.0
2018-Feb-19 07:30N 48°35' W 122°34'3 6.9
2018-Feb-19 07:00N 48°32' W 122°34'2 3.2
2018-Feb-19 06:30N 48°31' W 122°34'0 0.1
2018-Feb-19 06:00N 48°31' W 122°34'0 0.2
2018-Feb-19 05:30N 48°31' W 122°34'5 9.6
2018-Feb-19 05:00N 48°35' W 122°36'4 7.4
2018-Feb-19 04:30N 48°38' W 122°39'510.5
2018-Feb-19 04:00N 48°43' W 122°43'510.9
2018-Feb-19 03:30N 48°48' W 122°44'1 0.7
2018-Feb-19 02:26N 48°48' W 122°45'2 4.4
2018-Feb-19 01:59N 48°46' W 122°45'4 8.1
2018-Feb-19 01:30N 48°42' W 122°43'4 7.2
2018-Feb-19 01:00N 48°38' W 122°44'4 7.7
2018-Feb-19 00:30N 48°35' W 122°45'4 7.6
2018-Feb-19 00:00N 48°31' W 122°42'2 4.8
2018-Feb-18 23:30N 48°31' W 122°38'1 1.4
2018-Feb-18 23:00N 48°31' W 122°37'0 0.1
2018-Feb-18 22:30N 48°31' W 122°37'0 0.1
2018-Feb-18 22:00N 48°31' W 122°37'0 0.0
2018-Feb-18 21:30N 48°31' W 122°37'0 0.0
2018-Feb-18 21:00N 48°31' W 122°37'0 0.0
2018-Feb-18 20:30N 48°31' W 122°37'0 0.0
2018-Feb-18 20:00N 48°31' W 122°37'0 0.0
2018-Feb-18 19:30N 48°31' W 122°37'0 0.0
2018-Feb-18 18:59N 48°31' W 122°37'0 0.0
2018-Feb-18 18:30N 48°31' W 122°37'0 0.0
2018-Feb-18 18:00N 48°31' W 122°37'0 0.0
2018-Feb-18 17:30N 48°31' W 122°37'0 0.0
2018-Feb-18 17:00N 48°31' W 122°37'0 0.0
2018-Feb-18 16:30N 48°31' W 122°37'0 0.0
2018-Feb-18 16:00N 48°31' W 122°37'1 2.9
2018-Feb-18 15:30N 48°31' W 122°35'0 0.7
2018-Feb-18 15:00N 48°31' W 122°35'1 2.2
2018-Feb-18 14:30N 48°31' W 122°37'0 0.0
2018-Feb-18 14:00N 48°31' W 122°37'0 0.0
2018-Feb-18 13:30N 48°31' W 122°37'0 0.0
2018-Feb-18 13:00N 48°31' W 122°37'0 0.0
2018-Feb-18 12:30N 48°31' W 122°37'0 0.0
2018-Feb-18 12:00N 48°31' W 122°37'0 0.0
2018-Feb-18 11:30N 48°31' W 122°37'0 0.0
2018-Feb-18 11:00N 48°31' W 122°37'0 0.0
2018-Feb-18 10:30N 48°31' W 122°37'0 0.0
2018-Feb-18 10:00N 48°31' W 122°37'0 0.0
2018-Feb-18 09:30N 48°31' W 122°37'0 0.0
2018-Feb-18 08:59N 48°31' W 122°37'0 0.0
2018-Feb-18 08:30N 48°31' W 122°37'0 0.0
2018-Feb-18 08:00N 48°31' W 122°37'0 0.0
2018-Feb-18 07:29N 48°31' W 122°37'0 0.0
2018-Feb-18 07:00N 48°31' W 122°37'0 0.0
2018-Feb-18 06:30N 48°31' W 122°37'0 0.0
2018-Feb-18 05:59N 48°31' W 122°37'0 0.0
2018-Feb-18 05:30N 48°31' W 122°37'0 0.0
2018-Feb-18 05:00N 48°31' W 122°37'0 0.0
2018-Feb-18 04:30N 48°31' W 122°37'0 0.0
2018-Feb-18 04:00N 48°31' W 122°37'0 0.1
2018-Feb-18 03:30N 48°31' W 122°37'0 0.1
2018-Feb-18 03:00N 48°31' W 122°37'0 0.0
2018-Feb-18 02:30N 48°31' W 122°37'0 0.0
2018-Feb-18 01:59N 48°31' W 122°37'0 0.1
2018-Feb-18 01:30N 48°31' W 122°37'3 5.0
2018-Feb-18 01:00N 48°31' W 122°41'2 4.0
2018-Feb-18 00:30N 48°32' W 122°44'3 6.0
2018-Feb-18 00:00N 48°34' W 122°45'3 6.4
2018-Feb-17 23:30N 48°37' W 122°45'3 6.1
2018-Feb-17 23:00N 48°40' W 122°44'4 7.2
2018-Feb-17 22:30N 48°44' W 122°46'4 6.1
2018-Feb-17 21:55N 48°47' W 122°45'2 3.1
2018-Feb-17 21:09N 48°49' W 122°43'1 0.2
2018-Feb-17 16:54N 48°49' W 122°43'511.1
2018-Feb-17 16:28N 48°44' W 122°44'511.5
2018-Feb-17 16:00N 48°39' W 122°40'611.7
2018-Feb-17 15:30N 48°34' W 122°35'4 8.1
2018-Feb-17 15:00N 48°30' W 122°34'1 1.0
2018-Feb-17 14:30N 48°31' W 122°35'1 1.3
2018-Feb-17 14:00N 48°31' W 122°34'3 5.8
2018-Feb-17 13:30N 48°34' W 122°35'510.3
2018-Feb-17 13:00N 48°39' W 122°39'5 9.8
2018-Feb-17 12:30N 48°43' W 122°43'6 0.8
2018-Feb-17 04:44N 48°49' W 122°43'1 1.5
2018-Feb-17 04:21N 48°48' W 122°44'3 7.1
2018-Feb-17 03:55N 48°45' W 122°45'3 7.0
2018-Feb-17 03:30N 48°43' W 122°44'4 7.0
2018-Feb-17 03:00N 48°39' W 122°43'4 7.6
2018-Feb-17 02:30N 48°36' W 122°45'4 9.0
2018-Feb-17 02:00N 48°31' W 122°44'510.2
2018-Feb-17 01:29N 48°26' W 122°44'28 9.3
2018-Feb-16 22:28N 47°58' W 122°34'510.0
2018-Feb-16 22:00N 47°55' W 122°29'510.1
2018-Feb-16 21:30N 47°51' W 122°27'510.6
2018-Feb-16 21:00N 47°45' W 122°26'510.1
2018-Feb-16 20:30N 47°40' W 122°27'5 9.9
2018-Feb-16 20:00N 47°36' W 122°22'2 4.3
2018-Feb-16 19:28N 47°34' W 122°21'0 0.0
2018-Feb-16 19:00N 47°34' W 122°21'0 0.0
2018-Feb-16 18:28N 47°34' W 122°21'0 0.0
2018-Feb-16 18:00N 47°34' W 122°21'0 0.1
2018-Feb-16 17:31N 47°34' W 122°21'0 0.2
2018-Feb-16 17:00N 47°34' W 122°21'0 0.1
2018-Feb-16 16:19N 47°34' W 122°21'0 0.0
2018-Feb-16 16:00N 47°34' W 122°21'0 0.0
2018-Feb-16 15:30N 47°34' W 122°21'0 0.0
2018-Feb-16 15:00N 47°34' W 122°21'0 0.0
2018-Feb-16 14:30N 47°34' W 122°21'0 0.0
2018-Feb-16 14:00N 47°34' W 122°21'0 0.0
2018-Feb-16 13:31N 47°34' W 122°21'4 8.5
2018-Feb-16 13:00N 47°38' W 122°25'5 9.8
2018-Feb-16 12:30N 47°42' W 122°28'510.9
2018-Feb-16 12:00N 47°48' W 122°27'611.8
2018-Feb-16 11:30N 47°53' W 122°30'33 1.8
2018-Feb-15 17:34N 48°19' W 123°01'312.2
2018-Feb-15 17:19N 48°20' W 122°56'411.9
2018-Feb-15 17:00N 48°22' W 122°51'4 8.7
2018-Feb-15 16:30N 48°24' W 122°45'3 6.5
2018-Feb-15 16:00N 48°27' W 122°45'3 6.0
2018-Feb-15 15:30N 48°30' W 122°43'3 6.2
2018-Feb-15 15:00N 48°31' W 122°39'3 7.0
2018-Feb-15 14:31N 48°31' W 122°34'0 0.0
2018-Feb-15 14:01N 48°31' W 122°34'1 1.7
2018-Feb-15 13:30N 48°31' W 122°35'3 6.0
2018-Feb-15 13:00N 48°31' W 122°40'0 0.5
2018-Feb-15 12:30N 48°31' W 122°40'0 0.8
2018-Feb-15 12:01N 48°31' W 122°40'4 7.4
2018-Feb-15 11:31N 48°28' W 122°44'611.9
2018-Feb-15 11:00N 48°22' W 122°45'711.2
2018-Feb-15 10:24N 48°16' W 122°47'17 8.0
2018-Feb-15 08:14N 48°00' W 122°36'2 9.1
2018-Feb-15 07:58N 47°58' W 122°34'4 9.6
2018-Feb-15 07:30N 47°55' W 122°29'510.8
2018-Feb-15 07:00N 47°50' W 122°27'611.4
2018-Feb-15 06:30N 47°44' W 122°26'611.3
2018-Feb-15 06:01N 47°39' W 122°27'510.7
2018-Feb-15 05:30N 47°35' W 122°21'1 1.4
2018-Feb-15 05:00N 47°34' W 122°21'0 0.0
2018-Feb-15 04:30N 47°34' W 122°21'0 0.0
2018-Feb-15 04:01N 47°34' W 122°21'0 0.0
2018-Feb-15 03:30N 47°34' W 122°21'0 0.0
2018-Feb-15 03:00N 47°34' W 122°21'0 0.0
2018-Feb-15 02:30N 47°34' W 122°21'0 0.0
2018-Feb-15 02:00N 47°34' W 122°21'1 1.7
2018-Feb-15 01:31N 47°35' W 122°21'4 7.8
2018-Feb-15 01:01N 47°34' W 122°26'611.7
2018-Feb-15 00:30N 47°28' W 122°24'611.0
2018-Feb-15 00:00N 47°23' W 122°21'511.0
2018-Feb-14 23:30N 47°19' W 122°27'4 7.7
2018-Feb-14 22:59N 47°16' W 122°23'0 0.8
2018-Feb-14 22:28N 47°16' W 122°24'2 4.8
2018-Feb-14 22:00N 47°17' W 122°26'0 0.6
2018-Feb-14 21:30N 47°17' W 122°26'0 0.1
2018-Feb-14 13:53N 47°18' W 122°25'2 5.0
2018-Feb-14 13:31N 47°16' W 122°26'1 1.0
2018-Feb-14 13:01N 47°15' W 122°26'0 0.1
2018-Feb-14 12:31N 47°15' W 122°26'0 0.0
2018-Feb-14 12:00N 47°15' W 122°26'0 0.1
2018-Feb-14 11:30N 47°15' W 122°26'0 0.0
2018-Feb-14 11:01N 47°15' W 122°26'0 0.0
2018-Feb-14 10:30N 47°15' W 122°26'0 0.0
2018-Feb-14 10:00N 47°15' W 122°26'0 0.0
2018-Feb-14 09:30N 47°15' W 122°26'0 0.0
2018-Feb-14 09:00N 47°15' W 122°26'0 0.0
2018-Feb-14 08:29N 47°15' W 122°26'0 0.0
2018-Feb-14 07:59N 47°15' W 122°26'0 0.0
2018-Feb-14 07:31N 47°15' W 122°26'0 0.1
2018-Feb-14 07:01N 47°15' W 122°26'0 0.1
2018-Feb-14 06:30N 47°15' W 122°26'1 2.4
2018-Feb-14 06:00N 47°17' W 122°27'1 1.4
2018-Feb-14 05:30N 47°17' W 122°26'1 0.2
2018-Feb-14 01:41N 47°17' W 122°24'1 5.6
2018-Feb-14 01:28N 47°18' W 122°25'0 0.0
2018-Feb-13 21:48N 47°18' W 122°25'0 0.0
2018-Feb-13 21:29N 47°18' W 122°25'0 0.0
2018-Feb-13 19:17N 47°18' W 122°25'0 0.0
2018-Feb-13 18:55N 47°18' W 122°25'0 0.0
2018-Feb-13 18:19N 47°18' W 122°25'0 0.0
2018-Feb-13 17:33N 47°18' W 122°25'0 0.0
2018-Feb-13 17:07N 47°18' W 122°25'0 0.0
2018-Feb-13 17:00N 47°18' W 122°25'0 0.0
2018-Feb-13 16:26N 47°18' W 122°25'0 0.0
2018-Feb-13 14:46N 47°18' W 122°25'2 6.2
2018-Feb-13 14:30N 47°16' W 122°24'1 1.2
2018-Feb-13 14:01N 47°16' W 122°23'1 2.8
2018-Feb-13 13:31N 47°17' W 122°25'0 0.3
2018-Feb-13 13:00N 47°17' W 122°25'2 3.7
2018-Feb-13 12:31N 47°16' W 122°23'0 0.0
2018-Feb-13 12:01N 47°16' W 122°23'0 0.0
2018-Feb-13 11:30N 47°16' W 122°23'0 0.0
2018-Feb-13 11:01N 47°16' W 122°23'0 0.0
2018-Feb-13 10:31N 47°16' W 122°23'0 0.0
2018-Feb-13 10:00N 47°16' W 122°23'0 0.0
2018-Feb-13 09:30N 47°16' W 122°23'0 0.0
2018-Feb-13 09:00N 47°16' W 122°23'0 0.0
2018-Feb-13 08:31N 47°16' W 122°23'0 0.0
2018-Feb-13 07:59N 47°16' W 122°23'0 0.0
2018-Feb-13 07:30N 47°16' W 122°23'0 0.0
2018-Feb-13 07:00N 47°16' W 122°23'0 0.0
2018-Feb-13 06:30N 47°16' W 122°23'0 0.0
2018-Feb-13 06:01N 47°16' W 122°23'0 0.0
2018-Feb-13 05:31N 47°16' W 122°23'0 0.0
2018-Feb-13 05:00N 47°16' W 122°23'2 2.8
2018-Feb-13 04:28N 47°17' W 122°25'1 2.0
2018-Feb-13 03:54N 47°18' W 122°25'0 0.0
2018-Feb-13 03:23N 47°18' W 122°25'0 0.5
2018-Feb-13 02:32N 47°17' W 122°25'0 4.4
2018-Feb-13 02:28N 47°17' W 122°25'0 0.2
2018-Feb-13 00:28N 47°18' W 122°25'1 0.1
2018-Feb-12 19:11N 47°17' W 122°26'210.0
2018-Feb-12 19:00N 47°19' W 122°28'511.0
2018-Feb-12 18:30N 47°23' W 122°22'611.3
2018-Feb-12 18:00N 47°28' W 122°25'611.8
2018-Feb-12 17:31N 47°34' W 122°27'4 8.5
2018-Feb-12 17:00N 47°35' W 122°21'1 1.6
2018-Feb-12 16:30N 47°34' W 122°21'0 0.0
2018-Feb-12 15:59N 47°34' W 122°21'0 0.0
2018-Feb-12 15:30N 47°34' W 122°21'0 0.0
2018-Feb-12 15:00N 47°34' W 122°21'0 0.0
2018-Feb-12 14:31N 47°34' W 122°21'0 0.0
2018-Feb-12 14:00N 47°34' W 122°21'0 0.0
2018-Feb-12 13:30N 47°34' W 122°21'0 0.0
2018-Feb-12 12:59N 47°34' W 122°21'0 0.0
2018-Feb-12 12:30N 47°34' W 122°21'0 0.0
2018-Feb-12 12:01N 47°34' W 122°21'0 0.0
2018-Feb-12 11:30N 47°34' W 122°21'0 0.0
2018-Feb-12 11:00N 47°34' W 122°21'0 0.0
2018-Feb-12 10:31N 47°34' W 122°21'0 0.0
2018-Feb-12 10:00N 47°34' W 122°21'0 0.0
2018-Feb-12 09:30N 47°34' W 122°21'0 0.0
2018-Feb-12 09:00N 47°34' W 122°21'0 0.0
2018-Feb-12 08:30N 47°34' W 122°21'0 0.0
2018-Feb-12 08:00N 47°34' W 122°21'0 0.0
2018-Feb-12 07:30N 47°34' W 122°21'0 0.0
2018-Feb-12 07:00N 47°34' W 122°21'0 0.0
2018-Feb-12 06:30N 47°34' W 122°21'0 0.0
2018-Feb-12 06:00N 47°34' W 122°21'0 0.0
2018-Feb-12 05:29N 47°34' W 122°21'0 0.0
2018-Feb-12 05:01N 47°34' W 122°21'0 0.0
2018-Feb-12 04:30N 47°34' W 122°21'0 0.0
2018-Feb-12 04:01N 47°34' W 122°21'0 0.0
2018-Feb-12 03:29N 47°34' W 122°21'1 2.8
2018-Feb-12 03:00N 47°36' W 122°21'1 1.4
2018-Feb-12 02:19N 47°35' W 122°21'0 0.0
2018-Feb-12 01:52N 47°35' W 122°21'0 0.2
2018-Feb-12 01:28N 47°35' W 122°21'0 0.5
2018-Feb-12 01:00N 47°35' W 122°21'4 7.5
2018-Feb-12 00:30N 47°34' W 122°26'510.2
2018-Feb-12 00:01N 47°29' W 122°24'610.5
2018-Feb-11 23:27N 47°24' W 122°21'4 9.2
2018-Feb-11 23:00N 47°20' W 122°25'3 0.1
2018-Feb-10 18:34N 47°17' W 122°25'1 3.6
2018-Feb-10 18:22N 47°17' W 122°25'1 2.9
2018-Feb-10 18:00N 47°16' W 122°23'4 0.6
2018-Feb-10 12:06N 47°18' W 122°27'110.6
2018-Feb-10 11:58N 47°19' W 122°28'511.7
2018-Feb-10 11:30N 47°23' W 122°22'612.1
2018-Feb-10 11:00N 47°29' W 122°26'611.5
2018-Feb-10 10:30N 47°34' W 122°26'4 8.1
2018-Feb-10 10:00N 47°35' W 122°21'1 0.9
2018-Feb-10 09:21N 47°35' W 122°21'0 0.1
2018-Feb-10 09:00N 47°35' W 122°21'1 2.6
2018-Feb-10 08:30N 47°36' W 122°21'1 1.1
2018-Feb-10 08:00N 47°36' W 122°21'1 2.0
2018-Feb-10 07:29N 47°34' W 122°21'0 0.0
2018-Feb-10 06:59N 47°34' W 122°21'0 0.0
2018-Feb-10 06:30N 47°34' W 122°21'0 0.0
2018-Feb-10 06:00N 47°34' W 122°21'0 0.0
2018-Feb-10 05:26N 47°34' W 122°21'0 0.0
2018-Feb-10 05:00N 47°34' W 122°21'0 0.0
2018-Feb-10 04:30N 47°34' W 122°21'0 0.0
2018-Feb-10 03:58N 47°34' W 122°21'0 0.0
2018-Feb-10 03:30N 47°34' W 122°21'0 0.0
2018-Feb-10 03:00N 47°34' W 122°21'0 0.0
2018-Feb-10 02:31N 47°34' W 122°21'0 0.0
2018-Feb-10 02:00N 47°34' W 122°21'0 0.0
2018-Feb-10 01:30N 47°34' W 122°21'0 0.0
2018-Feb-10 01:00N 47°34' W 122°21'0 0.1
2018-Feb-10 00:30N 47°34' W 122°21'0 0.0
2018-Feb-10 00:00N 47°34' W 122°21'0 0.0
2018-Feb-09 23:30N 47°34' W 122°21'0 0.0
2018-Feb-09 23:00N 47°34' W 122°21'0 0.0
2018-Feb-09 22:46N 47°34' W 122°21'0 0.0
2018-Feb-09 22:30N 47°34' W 122°21'0 0.0
2018-Feb-09 22:01N 47°34' W 122°21'0 0.1
2018-Feb-09 21:31N 47°34' W 122°21'0 0.0
2018-Feb-09 21:01N 47°34' W 122°21'  

Dump ship's entire track history